sensor_id;sensor_type;location;lat;lon;timestamp;P1;durP1;ratioP1;P2;durP2;ratioP2
52274;SDS011;38228;50.940;4.024;2023-06-14T00:01:24;8.02;;;6.18;;
52274;SDS011;38228;50.940;4.024;2023-06-14T00:03:50;9.82;;;6.63;;
52274;SDS011;38228;50.940;4.024;2023-06-14T00:06:16;12.98;;;6.55;;
52274;SDS011;38228;50.940;4.024;2023-06-14T00:08:42;10.07;;;6.10;;
52274;SDS011;38228;50.940;4.024;2023-06-14T00:11:08;10.23;;;6.03;;
52274;SDS011;38228;50.940;4.024;2023-06-14T00:13:34;11.27;;;6.53;;
52274;SDS011;38228;50.940;4.024;2023-06-14T00:15:59;9.63;;;5.70;;
52274;SDS011;38228;50.940;4.024;2023-06-14T00:18:25;10.88;;;6.45;;
52274;SDS011;38228;50.940;4.024;2023-06-14T00:20:54;12.05;;;6.60;;
52274;SDS011;38228;50.940;4.024;2023-06-14T00:23:20;8.23;;;6.35;;
52274;SDS011;38228;50.940;4.024;2023-06-14T00:25:46;10.13;;;6.97;;
52274;SDS011;38228;50.940;4.024;2023-06-14T00:28:11;14.73;;;6.55;;
52274;SDS011;38228;50.940;4.024;2023-06-14T00:30:37;13.25;;;7.07;;
52274;SDS011;38228;50.940;4.024;2023-06-14T00:33:03;10.60;;;7.10;;
52274;SDS011;38228;50.940;4.024;2023-06-14T00:35:29;13.00;;;7.40;;
52274;SDS011;38228;50.940;4.024;2023-06-14T00:37:55;13.82;;;7.28;;
52274;SDS011;38228;50.940;4.024;2023-06-14T00:40:21;15.52;;;7.32;;
52274;SDS011;38228;50.940;4.024;2023-06-14T00:42:47;14.75;;;7.75;;
52274;SDS011;38228;50.940;4.024;2023-06-14T00:45:12;13.20;;;7.60;;
52274;SDS011;38228;50.940;4.024;2023-06-14T00:47:38;11.52;;;7.63;;
52274;SDS011;38228;50.940;4.024;2023-06-14T00:50:07;15.77;;;7.97;;
52274;SDS011;38228;50.940;4.024;2023-06-14T00:52:34;11.60;;;7.47;;
52274;SDS011;38228;50.940;4.024;2023-06-14T00:55:00;12.70;;;7.47;;
52274;SDS011;38228;50.940;4.024;2023-06-14T00:57:27;11.48;;;7.13;;
52274;SDS011;38228;50.940;4.024;2023-06-14T00:59:54;14.60;;;7.80;;
52274;SDS011;38228;50.940;4.024;2023-06-14T01:02:20;9.43;;;7.47;;
52274;SDS011;38228;50.940;4.024;2023-06-14T01:04:47;9.82;;;8.07;;
52274;SDS011;38228;50.940;4.024;2023-06-14T01:07:23;12.27;;;7.45;;
52274;SDS011;38228;50.940;4.024;2023-06-14T01:10:11;13.68;;;7.55;;
52274;SDS011;38228;50.940;4.024;2023-06-14T01:12:46;13.13;;;7.82;;
52274;SDS011;38228;50.940;4.024;2023-06-14T01:15:20;14.63;;;7.57;;
52274;SDS011;38228;50.940;4.024;2023-06-14T01:17:46;14.75;;;8.20;;
52274;SDS011;38228;50.940;4.024;2023-06-14T01:20:16;12.68;;;8.07;;
52274;SDS011;38228;50.940;4.024;2023-06-14T01:22:52;10.85;;;7.22;;
52274;SDS011;38228;50.940;4.024;2023-06-14T01:25:19;11.05;;;8.15;;
52274;SDS011;38228;50.940;4.024;2023-06-14T01:27:55;9.38;;;7.32;;
52274;SDS011;38228;50.940;4.024;2023-06-14T01:30:24;11.38;;;7.30;;
52274;SDS011;38228;50.940;4.024;2023-06-14T01:32:52;11.88;;;7.47;;
52274;SDS011;38228;50.940;4.024;2023-06-14T01:35:19;14.50;;;7.47;;
52274;SDS011;38228;50.940;4.024;2023-06-14T01:37:46;15.23;;;7.78;;
52274;SDS011;38228;50.940;4.024;2023-06-14T01:40:13;14.52;;;8.10;;
52274;SDS011;38228;50.940;4.024;2023-06-14T01:42:40;12.40;;;7.80;;
52274;SDS011;38228;50.940;4.024;2023-06-14T01:45:07;11.75;;;6.97;;
52274;SDS011;38228;50.940;4.024;2023-06-14T01:47:35;15.55;;;7.88;;
52274;SDS011;38228;50.940;4.024;2023-06-14T01:50:02;12.00;;;7.55;;
52274;SDS011;38228;50.940;4.024;2023-06-14T01:52:28;10.85;;;7.80;;
52274;SDS011;38228;50.940;4.024;2023-06-14T01:54:54;13.40;;;7.90;;
52274;SDS011;38228;50.940;4.024;2023-06-14T01:57:19;9.35;;;7.60;;
52274;SDS011;38228;50.940;4.024;2023-06-14T01:59:46;12.75;;;7.95;;
52274;SDS011;38228;50.940;4.024;2023-06-14T02:02:13;9.23;;;7.10;;
52274;SDS011;38228;50.940;4.024;2023-06-14T02:04:40;9.95;;;7.25;;
52274;SDS011;38228;50.940;4.024;2023-06-14T02:07:06;10.95;;;7.65;;
52274;SDS011;38228;50.940;4.024;2023-06-14T02:09:33;12.77;;;7.10;;
52274;SDS011;38228;50.940;4.024;2023-06-14T02:12:00;13.70;;;7.80;;
52274;SDS011;38228;50.940;4.024;2023-06-14T02:14:26;11.30;;;7.55;;
52274;SDS011;38228;50.940;4.024;2023-06-14T02:16:52;11.50;;;7.28;;
52274;SDS011;38228;50.940;4.024;2023-06-14T02:19:18;11.07;;;7.55;;
52274;SDS011;38228;50.940;4.024;2023-06-14T02:21:45;13.18;;;7.78;;
52274;SDS011;38228;50.940;4.024;2023-06-14T02:24:12;8.73;;;6.93;;
52274;SDS011;38228;50.940;4.024;2023-06-14T02:26:38;10.90;;;7.95;;
52274;SDS011;38228;50.940;4.024;2023-06-14T02:29:05;11.05;;;7.32;;
52274;SDS011;38228;50.940;4.024;2023-06-14T02:31:31;11.85;;;7.75;;
52274;SDS011;38228;50.940;4.024;2023-06-14T02:33:58;13.65;;;7.85;;
52274;SDS011;38228;50.940;4.024;2023-06-14T02:36:23;12.88;;;7.53;;
52274;SDS011;38228;50.940;4.024;2023-06-14T02:38:49;17.48;;;7.60;;
52274;SDS011;38228;50.940;4.024;2023-06-14T02:41:15;12.50;;;8.30;;
52274;SDS011;38228;50.940;4.024;2023-06-14T02:43:41;12.85;;;7.80;;
52274;SDS011;38228;50.940;4.024;2023-06-14T02:46:08;10.93;;;7.25;;
52274;SDS011;38228;50.940;4.024;2023-06-14T02:48:33;13.65;;;7.95;;
52274;SDS011;38228;50.940;4.024;2023-06-14T02:50:59;11.07;;;8.25;;
52274;SDS011;38228;50.940;4.024;2023-06-14T02:53:25;12.57;;;7.95;;
52274;SDS011;38228;50.940;4.024;2023-06-14T02:55:50;11.65;;;7.68;;
52274;SDS011;38228;50.940;4.024;2023-06-14T02:58:17;15.07;;;7.95;;
52274;SDS011;38228;50.940;4.024;2023-06-14T03:00:44;13.18;;;7.80;;
52274;SDS011;38228;50.940;4.024;2023-06-14T03:03:09;14.35;;;8.38;;
52274;SDS011;38228;50.940;4.024;2023-06-14T03:05:42;14.82;;;8.63;;
52274;SDS011;38228;50.940;4.024;2023-06-14T03:08:13;14.90;;;8.55;;
52274;SDS011;38228;50.940;4.024;2023-06-14T03:10:44;16.35;;;8.32;;
52274;SDS011;38228;50.940;4.024;2023-06-14T03:13:13;14.20;;;8.93;;
52274;SDS011;38228;50.940;4.024;2023-06-14T03:15:41;15.73;;;8.57;;
52274;SDS011;38228;50.940;4.024;2023-06-14T03:18:10;13.63;;;7.90;;
52274;SDS011;38228;50.940;4.024;2023-06-14T03:20:37;19.33;;;8.68;;
52274;SDS011;38228;50.940;4.024;2023-06-14T03:23:03;12.55;;;8.50;;
52274;SDS011;38228;50.940;4.024;2023-06-14T03:25:31;13.13;;;8.18;;
52274;SDS011;38228;50.940;4.024;2023-06-14T03:28:00;14.90;;;8.57;;
52274;SDS011;38228;50.940;4.024;2023-06-14T03:30:30;12.25;;;8.32;;
52274;SDS011;38228;50.940;4.024;2023-06-14T03:32:56;14.85;;;8.18;;
52274;SDS011;38228;50.940;4.024;2023-06-14T03:35:23;17.95;;;8.73;;
52274;SDS011;38228;50.940;4.024;2023-06-14T03:37:48;16.17;;;8.38;;
52274;SDS011;38228;50.940;4.024;2023-06-14T03:40:15;12.73;;;8.50;;
52274;SDS011;38228;50.940;4.024;2023-06-14T03:42:42;13.93;;;8.38;;
52274;SDS011;38228;50.940;4.024;2023-06-14T03:45:08;13.60;;;8.95;;
52274;SDS011;38228;50.940;4.024;2023-06-14T03:47:34;15.55;;;8.52;;
52274;SDS011;38228;50.940;4.024;2023-06-14T03:50:03;14.65;;;8.63;;
52274;SDS011;38228;50.940;4.024;2023-06-14T03:52:30;12.73;;;8.13;;
52274;SDS011;38228;50.940;4.024;2023-06-14T03:54:57;13.65;;;8.55;;
52274;SDS011;38228;50.940;4.024;2023-06-14T03:57:25;13.52;;;8.38;;
52274;SDS011;38228;50.940;4.024;2023-06-14T03:59:51;14.30;;;8.50;;
52274;SDS011;38228;50.940;4.024;2023-06-14T04:02:17;12.43;;;8.35;;
52274;SDS011;38228;50.940;4.024;2023-06-14T04:04:43;12.65;;;7.78;;
52274;SDS011;38228;50.940;4.024;2023-06-14T04:07:11;14.07;;;7.90;;
52274;SDS011;38228;50.940;4.024;2023-06-14T04:09:40;13.85;;;8.32;;
52274;SDS011;38228;50.940;4.024;2023-06-14T04:12:07;12.07;;;7.50;;
52274;SDS011;38228;50.940;4.024;2023-06-14T04:14:39;10.38;;;7.63;;
52274;SDS011;38228;50.940;4.024;2023-06-14T04:17:05;11.45;;;7.65;;
52274;SDS011;38228;50.940;4.024;2023-06-14T04:19:31;14.55;;;8.15;;
52274;SDS011;38228;50.940;4.024;2023-06-14T04:21:58;10.77;;;7.05;;
52274;SDS011;38228;50.940;4.024;2023-06-14T04:24:27;15.63;;;7.40;;
52274;SDS011;38228;50.940;4.024;2023-06-14T04:27:00;13.82;;;7.13;;
52274;SDS011;38228;50.940;4.024;2023-06-14T04:29:28;15.95;;;7.22;;
52274;SDS011;38228;50.940;4.024;2023-06-14T04:31:54;12.63;;;6.93;;
52274;SDS011;38228;50.940;4.024;2023-06-14T04:34:28;13.35;;;7.20;;
52274;SDS011;38228;50.940;4.024;2023-06-14T04:36:58;10.05;;;6.82;;
52274;SDS011;38228;50.940;4.024;2023-06-14T04:39:26;10.32;;;7.30;;
52274;SDS011;38228;50.940;4.024;2023-06-14T04:41:52;11.68;;;7.30;;
52274;SDS011;38228;50.940;4.024;2023-06-14T04:44:21;10.15;;;7.07;;
52274;SDS011;38228;50.940;4.024;2023-06-14T04:46:49;12.52;;;7.32;;
52274;SDS011;38228;50.940;4.024;2023-06-14T04:49:15;13.55;;;7.05;;
52274;SDS011;38228;50.940;4.024;2023-06-14T04:51:42;12.75;;;7.00;;
52274;SDS011;38228;50.940;4.024;2023-06-14T04:54:08;8.95;;;6.85;;
52274;SDS011;38228;50.940;4.024;2023-06-14T04:56:43;12.07;;;6.82;;
52274;SDS011;38228;50.940;4.024;2023-06-14T04:59:10;11.77;;;7.13;;
52274;SDS011;38228;50.940;4.024;2023-06-14T05:01:40;13.55;;;6.88;;
52274;SDS011;38228;50.940;4.024;2023-06-14T05:04:05;11.98;;;7.50;;
52274;SDS011;38228;50.940;4.024;2023-06-14T05:06:31;14.95;;;7.20;;
52274;SDS011;38228;50.940;4.024;2023-06-14T05:08:57;12.52;;;6.72;;
52274;SDS011;38228;50.940;4.024;2023-06-14T05:11:23;12.93;;;6.80;;
52274;SDS011;38228;50.940;4.024;2023-06-14T05:13:49;13.63;;;7.03;;
52274;SDS011;38228;50.940;4.024;2023-06-14T05:16:16;13.68;;;7.82;;
52274;SDS011;38228;50.940;4.024;2023-06-14T05:18:44;14.80;;;7.35;;
52274;SDS011;38228;50.940;4.024;2023-06-14T05:21:11;9.25;;;6.88;;
52274;SDS011;38228;50.940;4.024;2023-06-14T05:23:36;12.75;;;7.07;;
52274;SDS011;38228;50.940;4.024;2023-06-14T05:26:02;10.60;;;7.03;;
52274;SDS011;38228;50.940;4.024;2023-06-14T05:28:29;14.27;;;7.40;;
52274;SDS011;38228;50.940;4.024;2023-06-14T05:30:56;17.58;;;7.25;;
52274;SDS011;38228;50.940;4.024;2023-06-14T05:33:22;22.60;;;7.30;;
52274;SDS011;38228;50.940;4.024;2023-06-14T05:35:47;11.05;;;6.80;;
52274;SDS011;38228;50.940;4.024;2023-06-14T05:38:13;15.73;;;7.40;;
52274;SDS011;38228;50.940;4.024;2023-06-14T05:40:39;10.27;;;7.20;;
52274;SDS011;38228;50.940;4.024;2023-06-14T05:43:05;13.05;;;6.70;;
52274;SDS011;38228;50.940;4.024;2023-06-14T05:45:30;10.60;;;7.43;;
52274;SDS011;38228;50.940;4.024;2023-06-14T05:47:56;9.88;;;6.70;;
52274;SDS011;38228;50.940;4.024;2023-06-14T05:50:22;10.65;;;8.10;;
52274;SDS011;38228;50.940;4.024;2023-06-14T05:52:47;11.10;;;7.43;;
52274;SDS011;38228;50.940;4.024;2023-06-14T05:55:15;11.10;;;7.03;;
52274;SDS011;38228;50.940;4.024;2023-06-14T05:57:41;13.52;;;7.15;;
52274;SDS011;38228;50.940;4.024;2023-06-14T06:00:08;11.75;;;7.38;;
52274;SDS011;38228;50.940;4.024;2023-06-14T06:02:40;12.93;;;8.02;;
52274;SDS011;38228;50.940;4.024;2023-06-14T06:05:08;13.70;;;7.28;;
52274;SDS011;38228;50.940;4.024;2023-06-14T06:07:34;17.80;;;7.80;;
52274;SDS011;38228;50.940;4.024;2023-06-14T06:10:00;17.00;;;7.88;;
52274;SDS011;38228;50.940;4.024;2023-06-14T06:12:26;17.58;;;7.63;;
52274;SDS011;38228;50.940;4.024;2023-06-14T06:14:52;19.63;;;7.88;;
52274;SDS011;38228;50.940;4.024;2023-06-14T06:17:17;18.30;;;7.65;;
52274;SDS011;38228;50.940;4.024;2023-06-14T06:19:43;16.40;;;8.05;;
52274;SDS011;38228;50.940;4.024;2023-06-14T06:22:09;25.52;;;8.07;;
52274;SDS011;38228;50.940;4.024;2023-06-14T06:24:35;23.20;;;7.78;;
52274;SDS011;38228;50.940;4.024;2023-06-14T06:27:01;17.98;;;7.53;;
52274;SDS011;38228;50.940;4.024;2023-06-14T06:29:27;16.02;;;7.93;;
52274;SDS011;38228;50.940;4.024;2023-06-14T06:31:53;13.73;;;7.80;;
52274;SDS011;38228;50.940;4.024;2023-06-14T06:34:18;12.40;;;7.13;;
52274;SDS011;38228;50.940;4.024;2023-06-14T06:36:44;11.63;;;7.43;;
52274;SDS011;38228;50.940;4.024;2023-06-14T06:39:10;14.00;;;7.88;;
52274;SDS011;38228;50.940;4.024;2023-06-14T06:41:37;19.27;;;7.28;;
52274;SDS011;38228;50.940;4.024;2023-06-14T06:44:04;19.02;;;7.32;;
52274;SDS011;38228;50.940;4.024;2023-06-14T06:46:31;12.80;;;7.85;;
52274;SDS011;38228;50.940;4.024;2023-06-14T06:48:57;14.60;;;7.25;;
52274;SDS011;38228;50.940;4.024;2023-06-14T06:51:23;10.60;;;6.90;;
52274;SDS011;38228;50.940;4.024;2023-06-14T06:53:53;16.77;;;7.32;;
52274;SDS011;38228;50.940;4.024;2023-06-14T06:56:19;16.92;;;6.82;;
52274;SDS011;38228;50.940;4.024;2023-06-14T06:58:46;15.38;;;7.20;;
52274;SDS011;38228;50.940;4.024;2023-06-14T07:01:12;13.60;;;6.78;;
52274;SDS011;38228;50.940;4.024;2023-06-14T07:03:38;14.20;;;6.60;;
52274;SDS011;38228;50.940;4.024;2023-06-14T07:06:04;11.70;;;7.60;;
52274;SDS011;38228;50.940;4.024;2023-06-14T07:08:30;15.07;;;7.07;;
52274;SDS011;38228;50.940;4.024;2023-06-14T07:10:55;13.48;;;6.97;;
52274;SDS011;38228;50.940;4.024;2023-06-14T07:13:21;10.88;;;7.00;;
52274;SDS011;38228;50.940;4.024;2023-06-14T07:15:47;12.77;;;6.90;;
52274;SDS011;38228;50.940;4.024;2023-06-14T07:18:13;14.18;;;6.88;;
52274;SDS011;38228;50.940;4.024;2023-06-14T07:20:38;11.07;;;6.80;;
52274;SDS011;38228;50.940;4.024;2023-06-14T07:23:05;11.75;;;6.50;;
52274;SDS011;38228;50.940;4.024;2023-06-14T07:25:31;10.45;;;6.82;;
52274;SDS011;38228;50.940;4.024;2023-06-14T07:27:56;13.48;;;6.70;;
52274;SDS011;38228;50.940;4.024;2023-06-14T07:30:22;11.18;;;6.35;;
52274;SDS011;38228;50.940;4.024;2023-06-14T07:32:51;9.88;;;6.78;;
52274;SDS011;38228;50.940;4.024;2023-06-14T07:35:18;13.82;;;7.07;;
52274;SDS011;38228;50.940;4.024;2023-06-14T07:37:43;19.23;;;6.40;;
52274;SDS011;38228;50.940;4.024;2023-06-14T07:40:10;13.77;;;6.40;;
52274;SDS011;38228;50.940;4.024;2023-06-14T07:42:37;7.53;;;6.65;;
52274;SDS011;38228;50.940;4.024;2023-06-14T07:45:03;8.35;;;5.82;;
52274;SDS011;38228;50.940;4.024;2023-06-14T07:47:29;11.52;;;6.45;;
52274;SDS011;38228;50.940;4.024;2023-06-14T07:49:55;16.98;;;6.47;;
52274;SDS011;38228;50.940;4.024;2023-06-14T07:52:21;11.05;;;5.85;;
52274;SDS011;38228;50.940;4.024;2023-06-14T07:54:47;15.65;;;6.18;;
52274;SDS011;38228;50.940;4.024;2023-06-14T07:57:12;11.05;;;6.05;;
52274;SDS011;38228;50.940;4.024;2023-06-14T07:59:38;9.82;;;5.80;;
52274;SDS011;38228;50.940;4.024;2023-06-14T08:02:04;11.95;;;5.63;;
52274;SDS011;38228;50.940;4.024;2023-06-14T08:04:30;23.92;;;6.50;;
52274;SDS011;38228;50.940;4.024;2023-06-14T08:06:57;10.45;;;5.90;;
52274;SDS011;38228;50.940;4.024;2023-06-14T08:09:23;20.10;;;6.65;;
52274;SDS011;38228;50.940;4.024;2023-06-14T08:11:50;17.60;;;6.32;;
52274;SDS011;38228;50.940;4.024;2023-06-14T08:14:15;20.42;;;6.90;;
52274;SDS011;38228;50.940;4.024;2023-06-14T08:16:41;16.67;;;6.55;;
52274;SDS011;38228;50.940;4.024;2023-06-14T08:19:07;29.73;;;6.72;;
52274;SDS011;38228;50.940;4.024;2023-06-14T08:21:33;16.08;;;7.35;;
52274;SDS011;38228;50.940;4.024;2023-06-14T08:24:01;11.35;;;5.85;;
52274;SDS011;38228;50.940;4.024;2023-06-14T08:26:27;9.77;;;5.22;;
52274;SDS011;38228;50.940;4.024;2023-06-14T08:28:56;12.20;;;6.35;;
52274;SDS011;38228;50.940;4.024;2023-06-14T08:31:22;10.15;;;5.78;;
52274;SDS011;38228;50.940;4.024;2023-06-14T08:33:49;10.65;;;6.00;;
52274;SDS011;38228;50.940;4.024;2023-06-14T08:36:15;14.15;;;6.07;;
52274;SDS011;38228;50.940;4.024;2023-06-14T08:38:41;12.80;;;5.30;;
52274;SDS011;38228;50.940;4.024;2023-06-14T08:41:06;8.95;;;5.15;;
52274;SDS011;38228;50.940;4.024;2023-06-14T08:43:36;13.90;;;5.78;;
52274;SDS011;38228;50.940;4.024;2023-06-14T08:46:02;9.95;;;5.75;;
52274;SDS011;38228;50.940;4.024;2023-06-14T08:48:29;9.13;;;5.22;;
52274;SDS011;38228;50.940;4.024;2023-06-14T08:50:59;10.63;;;5.60;;
52274;SDS011;38228;50.940;4.024;2023-06-14T08:53:30;10.88;;;5.32;;
52274;SDS011;38228;50.940;4.024;2023-06-14T08:55:57;9.48;;;5.18;;
52274;SDS011;38228;50.940;4.024;2023-06-14T08:58:27;14.27;;;5.65;;
52274;SDS011;38228;50.940;4.024;2023-06-14T09:00:56;14.05;;;5.90;;
52274;SDS011;38228;50.940;4.024;2023-06-14T09:03:23;12.32;;;5.53;;
52274;SDS011;38228;50.940;4.024;2023-06-14T09:05:54;10.40;;;5.65;;
52274;SDS011;38228;50.940;4.024;2023-06-14T09:08:21;13.30;;;5.55;;
52274;SDS011;38228;50.940;4.024;2023-06-14T09:10:48;10.30;;;5.13;;
52274;SDS011;38228;50.940;4.024;2023-06-14T09:13:14;6.72;;;5.07;;
52274;SDS011;38228;50.940;4.024;2023-06-14T09:15:40;7.03;;;5.10;;
52274;SDS011;38228;50.940;4.024;2023-06-14T09:18:05;12.93;;;5.97;;
52274;SDS011;38228;50.940;4.024;2023-06-14T09:20:32;14.45;;;5.40;;
52274;SDS011;38228;50.940;4.024;2023-06-14T09:22:58;8.77;;;4.97;;
52274;SDS011;38228;50.940;4.024;2023-06-14T09:25:26;14.65;;;5.60;;
52274;SDS011;38228;50.940;4.024;2023-06-14T09:27:52;16.55;;;5.50;;
52274;SDS011;38228;50.940;4.024;2023-06-14T09:30:19;15.10;;;5.78;;
52274;SDS011;38228;50.940;4.024;2023-06-14T09:32:45;10.60;;;5.50;;
52274;SDS011;38228;50.940;4.024;2023-06-14T09:35:11;10.73;;;5.10;;
52274;SDS011;38228;50.940;4.024;2023-06-14T09:37:37;7.53;;;4.75;;
52274;SDS011;38228;50.940;4.024;2023-06-14T09:40:04;7.63;;;5.03;;
52274;SDS011;38228;50.940;4.024;2023-06-14T09:42:30;14.85;;;5.82;;
52274;SDS011;38228;50.940;4.024;2023-06-14T09:44:56;14.38;;;5.32;;
52274;SDS011;38228;50.940;4.024;2023-06-14T09:47:24;13.90;;;5.80;;
52274;SDS011;38228;50.940;4.024;2023-06-14T09:49:50;17.50;;;5.85;;
52274;SDS011;38228;50.940;4.024;2023-06-14T09:52:20;14.20;;;5.50;;
52274;SDS011;38228;50.940;4.024;2023-06-14T09:54:47;20.23;;;5.57;;
52274;SDS011;38228;50.940;4.024;2023-06-14T09:57:16;10.68;;;5.25;;
52274;SDS011;38228;50.940;4.024;2023-06-14T09:59:46;10.82;;;5.10;;
52274;SDS011;38228;50.940;4.024;2023-06-14T10:02:24;14.80;;;5.10;;
52274;SDS011;38228;50.940;4.024;2023-06-14T10:07:40;13.13;;;5.45;;
52274;SDS011;38228;50.940;4.024;2023-06-14T10:10:09;16.13;;;5.38;;
52274;SDS011;38228;50.940;4.024;2023-06-14T10:12:35;16.25;;;5.35;;
52274;SDS011;38228;50.940;4.024;2023-06-14T10:15:02;11.73;;;5.10;;
52274;SDS011;38228;50.940;4.024;2023-06-14T10:17:38;11.40;;;5.10;;
52274;SDS011;38228;50.940;4.024;2023-06-14T10:23:02;9.65;;;5.35;;
52274;SDS011;38228;50.940;4.024;2023-06-14T10:25:32;9.05;;;4.65;;
52274;SDS011;38228;50.940;4.024;2023-06-14T10:28:17;11.93;;;5.65;;
52274;SDS011;38228;50.940;4.024;2023-06-14T10:33:30;8.80;;;5.40;;
52274;SDS011;38228;50.940;4.024;2023-06-14T10:41:36;14.95;;;5.35;;
52274;SDS011;38228;50.940;4.024;2023-06-14T10:46:38;9.90;;;5.07;;
52274;SDS011;38228;50.940;4.024;2023-06-14T10:49:05;10.25;;;4.80;;
52274;SDS011;38228;50.940;4.024;2023-06-14T10:51:42;9.02;;;4.78;;
52274;SDS011;38228;50.940;4.024;2023-06-14T10:54:14;13.57;;;5.13;;
52274;SDS011;38228;50.940;4.024;2023-06-14T10:59:17;10.73;;;5.25;;
52274;SDS011;38228;50.940;4.024;2023-06-14T11:05:05;7.82;;;4.95;;
52274;SDS011;38228;50.940;4.024;2023-06-14T11:13:03;15.20;;;4.50;;
52274;SDS011;38228;50.940;4.024;2023-06-14T11:15:29;10.32;;;4.50;;
52274;SDS011;38228;50.940;4.024;2023-06-14T11:17:56;13.45;;;4.75;;
52274;SDS011;38228;50.940;4.024;2023-06-14T11:20:26;15.40;;;4.70;;
52274;SDS011;38228;50.940;4.024;2023-06-14T11:22:53;12.68;;;4.78;;
52274;SDS011;38228;50.940;4.024;2023-06-14T11:25:19;9.07;;;4.70;;
52274;SDS011;38228;50.940;4.024;2023-06-14T11:27:45;13.07;;;4.80;;
52274;SDS011;38228;50.940;4.024;2023-06-14T11:30:11;12.68;;;4.55;;
52274;SDS011;38228;50.940;4.024;2023-06-14T11:32:38;6.05;;;4.53;;
52274;SDS011;38228;50.940;4.024;2023-06-14T11:35:05;8.35;;;4.43;;
52274;SDS011;38228;50.940;4.024;2023-06-14T11:37:31;11.70;;;4.75;;
52274;SDS011;38228;50.940;4.024;2023-06-14T11:40:02;8.18;;;4.35;;
52274;SDS011;38228;50.940;4.024;2023-06-14T11:42:35;13.68;;;4.70;;
52274;SDS011;38228;50.940;4.024;2023-06-14T11:45:02;7.75;;;4.80;;
52274;SDS011;38228;50.940;4.024;2023-06-14T11:47:33;6.82;;;4.20;;
52274;SDS011;38228;50.940;4.024;2023-06-14T11:50:00;7.78;;;4.25;;
52274;SDS011;38228;50.940;4.024;2023-06-14T11:52:27;7.47;;;4.60;;
52274;SDS011;38228;50.940;4.024;2023-06-14T11:54:53;9.50;;;4.38;;
52274;SDS011;38228;50.940;4.024;2023-06-14T11:57:19;9.90;;;4.40;;
52274;SDS011;38228;50.940;4.024;2023-06-14T11:59:46;6.65;;;4.28;;
52274;SDS011;38228;50.940;4.024;2023-06-14T12:02:15;8.82;;;4.65;;
52274;SDS011;38228;50.940;4.024;2023-06-14T12:04:42;6.30;;;4.18;;
52274;SDS011;38228;50.940;4.024;2023-06-14T12:07:11;6.63;;;4.10;;
52274;SDS011;38228;50.940;4.024;2023-06-14T12:14:50;10.90;;;4.07;;
52274;SDS011;38228;50.940;4.024;2023-06-14T12:17:17;6.65;;;4.00;;
52274;SDS011;38228;50.940;4.024;2023-06-14T12:19:43;4.97;;;4.10;;
52274;SDS011;38228;50.940;4.024;2023-06-14T12:22:10;7.45;;;4.20;;
52274;SDS011;38228;50.940;4.024;2023-06-14T12:24:37;5.90;;;4.18;;
52274;SDS011;38228;50.940;4.024;2023-06-14T12:27:03;6.65;;;3.85;;
52274;SDS011;38228;50.940;4.024;2023-06-14T12:29:29;5.60;;;3.80;;
52274;SDS011;38228;50.940;4.024;2023-06-14T12:31:56;10.93;;;4.00;;
52274;SDS011;38228;50.940;4.024;2023-06-14T12:34:25;6.80;;;4.22;;
52274;SDS011;38228;50.940;4.024;2023-06-14T12:36:55;7.50;;;4.40;;
52274;SDS011;38228;50.940;4.024;2023-06-14T12:39:21;9.20;;;3.70;;
52274;SDS011;38228;50.940;4.024;2023-06-14T12:41:47;8.02;;;4.40;;
52274;SDS011;38228;50.940;4.024;2023-06-14T12:44:14;11.52;;;4.60;;
52274;SDS011;38228;50.940;4.024;2023-06-14T12:46:43;12.48;;;4.43;;
52274;SDS011;38228;50.940;4.024;2023-06-14T12:49:09;8.40;;;4.28;;
52274;SDS011;38228;50.940;4.024;2023-06-14T12:51:36;6.82;;;4.10;;
52274;SDS011;38228;50.940;4.024;2023-06-14T12:54:02;9.10;;;4.18;;
52274;SDS011;38228;50.940;4.024;2023-06-14T12:56:28;13.55;;;4.28;;
52274;SDS011;38228;50.940;4.024;2023-06-14T12:58:54;8.02;;;4.10;;
52274;SDS011;38228;50.940;4.024;2023-06-14T13:01:20;5.72;;;3.90;;
52274;SDS011;38228;50.940;4.024;2023-06-14T13:03:48;8.88;;;3.90;;
52274;SDS011;38228;50.940;4.024;2023-06-14T13:06:15;10.95;;;4.50;;
52274;SDS011;38228;50.940;4.024;2023-06-14T13:08:41;14.30;;;4.80;;
52274;SDS011;38228;50.940;4.024;2023-06-14T13:11:07;10.18;;;3.95;;
52274;SDS011;38228;50.940;4.024;2023-06-14T13:13:32;9.27;;;4.32;;
52274;SDS011;38228;50.940;4.024;2023-06-14T13:15:58;9.27;;;3.95;;
52274;SDS011;38228;50.940;4.024;2023-06-14T13:18:24;5.57;;;3.70;;
52274;SDS011;38228;50.940;4.024;2023-06-14T13:20:50;5.82;;;4.22;;
52274;SDS011;38228;50.940;4.024;2023-06-14T13:23:16;8.75;;;3.75;;
52274;SDS011;38228;50.940;4.024;2023-06-14T13:25:42;8.93;;;4.13;;
52274;SDS011;38228;50.940;4.024;2023-06-14T13:28:07;12.52;;;4.53;;
52274;SDS011;38228;50.940;4.024;2023-06-14T13:30:34;8.73;;;3.72;;
52274;SDS011;38228;50.940;4.024;2023-06-14T13:33:00;6.03;;;3.80;;
52274;SDS011;38228;50.940;4.024;2023-06-14T13:35:26;5.55;;;3.20;;
52274;SDS011;38228;50.940;4.024;2023-06-14T13:37:52;8.00;;;3.63;;
52274;SDS011;38228;50.940;4.024;2023-06-14T13:40:18;6.82;;;3.72;;
52274;SDS011;38228;50.940;4.024;2023-06-14T13:42:45;10.27;;;3.80;;
52274;SDS011;38228;50.940;4.024;2023-06-14T13:45:11;8.38;;;4.28;;
52274;SDS011;38228;50.940;4.024;2023-06-14T13:47:38;10.65;;;3.53;;
52274;SDS011;38228;50.940;4.024;2023-06-14T13:50:04;9.50;;;4.05;;
52274;SDS011;38228;50.940;4.024;2023-06-14T13:52:30;10.60;;;3.88;;
52274;SDS011;38228;50.940;4.024;2023-06-14T13:54:56;6.45;;;3.92;;
52274;SDS011;38228;50.940;4.024;2023-06-14T13:57:22;10.20;;;3.60;;
52274;SDS011;38228;50.940;4.024;2023-06-14T13:59:48;10.20;;;4.00;;
52274;SDS011;38228;50.940;4.024;2023-06-14T14:02:13;4.32;;;3.50;;
52274;SDS011;38228;50.940;4.024;2023-06-14T14:04:39;5.78;;;3.17;;
52274;SDS011;38228;50.940;4.024;2023-06-14T14:07:06;6.93;;;3.22;;
52274;SDS011;38228;50.940;4.024;2023-06-14T14:09:32;8.00;;;3.22;;
52274;SDS011;38228;50.940;4.024;2023-06-14T14:11:59;11.43;;;3.13;;
52274;SDS011;38228;50.940;4.024;2023-06-14T14:14:27;5.47;;;3.10;;
52274;SDS011;38228;50.940;4.024;2023-06-14T14:16:53;6.63;;;3.53;;
52274;SDS011;38228;50.940;4.024;2023-06-14T14:19:20;15.98;;;3.58;;
52274;SDS011;38228;50.940;4.024;2023-06-14T14:21:47;10.32;;;3.17;;
52274;SDS011;38228;50.940;4.024;2023-06-14T14:24:12;19.80;;;2.90;;
52274;SDS011;38228;50.940;4.024;2023-06-14T14:26:38;8.57;;;3.13;;
52274;SDS011;38228;50.940;4.024;2023-06-14T14:29:04;7.32;;;2.70;;
52274;SDS011;38228;50.940;4.024;2023-06-14T14:31:33;7.30;;;2.67;;
52274;SDS011;38228;50.940;4.024;2023-06-14T14:33:59;6.30;;;3.00;;
52274;SDS011;38228;50.940;4.024;2023-06-14T14:36:24;7.10;;;2.80;;
52274;SDS011;38228;50.940;4.024;2023-06-14T14:38:50;5.85;;;2.60;;
52274;SDS011;38228;50.940;4.024;2023-06-14T14:41:19;4.38;;;2.38;;
52274;SDS011;38228;50.940;4.024;2023-06-14T14:43:45;5.90;;;2.70;;
52274;SDS011;38228;50.940;4.024;2023-06-14T14:46:10;5.28;;;2.30;;
52274;SDS011;38228;50.940;4.024;2023-06-14T14:48:36;7.88;;;2.60;;
52274;SDS011;38228;50.940;4.024;2023-06-14T14:51:02;9.48;;;2.65;;
52274;SDS011;38228;50.940;4.024;2023-06-14T14:53:28;5.22;;;2.28;;
52274;SDS011;38228;50.940;4.024;2023-06-14T14:55:53;6.75;;;2.70;;
52274;SDS011;38228;50.940;4.024;2023-06-14T14:58:19;5.05;;;2.17;;
52274;SDS011;38228;50.940;4.024;2023-06-14T15:00:45;4.20;;;2.00;;
52274;SDS011;38228;50.940;4.024;2023-06-14T15:03:11;4.03;;;1.90;;
52274;SDS011;38228;50.940;4.024;2023-06-14T15:05:37;8.80;;;2.35;;
52274;SDS011;38228;50.940;4.024;2023-06-14T15:08:03;4.95;;;2.17;;
52274;SDS011;38228;50.940;4.024;2023-06-14T15:10:30;2.83;;;1.73;;